Time;durP1;ratioP1;P1;durP2;ratioP2;P2;SDS_P1;SDS_P2;PMS_P1;PMS_P2;Temp;Humidity;BMP_temperature;BMP_pressure;BME280_temperature;BME280_humidity;BME280_pressure;Samples;Min_cycle;Max_cycle;Signal;HPM_P1;HPM_P2
2020/12/01 00:02:22;;;;;;;39.70;16.93;;;1.10;90.40;;;;;;5091059;28;20030;-75
2020/12/01 00:04:48;;;;;;;41.87;18.70;;;1.20;90.40;;;;;;5092637;28;20024;-70
2020/12/01 00:07:13;;;;;;;40.80;17.43;;;1.20;90.50;;;;;;5091438;28;20052;-69
2020/12/01 00:09:39;;;;;;;41.97;17.33;;;1.20;90.50;;;;;;5090595;28;20119;-70
2020/12/01 00:12:05;;;;;;;41.77;17.53;;;1.20;90.40;;;;;;5092481;28;20031;-70
2020/12/01 00:14:30;;;;;;;38.60;15.77;;;1.30;90.40;;;;;;5091746;28;20077;-70
2020/12/01 00:16:56;;;;;;;34.33;15.17;;;1.40;90.30;;;;;;5090877;28;20412;-70
2020/12/01 00:19:22;;;;;;;36.70;14.40;;;1.50;90.40;;;;;;5090424;28;20055;-70
2020/12/01 00:21:47;;;;;;;34.10;15.67;;;1.50;90.30;;;;;;5092891;28;20494;-70
2020/12/01 00:24:14;;;;;;;36.13;16.10;;;1.50;90.30;;;;;;5092139;28;20472;-71
2020/12/01 00:26:39;;;;;;;32.30;14.17;;;1.60;90.30;;;;;;5090864;28;20032;-70
2020/12/01 00:29:06;;;;;;;32.33;15.23;;;1.60;90.20;;;;;;5091263;28;20032;-70
2020/12/01 00:31:39;;;;;;;39.67;15.70;;;1.60;90.20;;;;;;5090731;28;20093;-70
2020/12/01 00:34:06;;;;;;;37.93;15.50;;;1.60;90.20;;;;;;5091329;28;20028;-70
2020/12/01 00:36:32;;;;;;;34.90;14.93;;;1.60;90.30;;;;;;5090627;28;20475;-70
2020/12/01 00:38:57;;;;;;;34.40;15.23;;;1.60;90.40;;;;;;5091245;28;20067;-70
2020/12/01 00:41:23;;;;;;;36.13;15.70;;;1.60;90.40;;;;;;5090662;28;20123;-72
2020/12/01 00:43:48;;;;;;;38.50;15.03;;;1.60;90.40;;;;;;5091140;28;20132;-70
2020/12/01 00:46:14;;;;;;;36.43;14.93;;;1.60;90.40;;;;;;5092420;28;20028;-70
2020/12/01 00:48:40;;;;;;;34.37;15.03;;;1.60;90.40;;;;;;5091666;28;20039;-70
2020/12/01 00:51:05;;;;;;;38.57;15.10;;;1.60;90.30;;;;;;5092165;28;20032;-70
2020/12/01 00:53:31;;;;;;;32.87;14.63;;;1.60;90.20;;;;;;5091807;28;20099;-70
2020/12/01 00:55:57;;;;;;;32.43;15.13;;;1.60;90.30;;;;;;5091211;28;20020;-70
2020/12/01 00:58:22;;;;;;;30.97;14.20;;;1.70;90.30;;;;;;5090913;28;20492;-70
2020/12/01 01:00:49;;;;;;;32.03;14.43;;;1.70;90.30;;;;;;5090398;28;20039;-70
2020/12/01 01:03:15;;;;;;;35.60;15.10;;;1.70;90.30;;;;;;5092246;28;20021;-70
2020/12/01 01:05:41;;;;;;;32.77;15.07;;;1.70;90.30;;;;;;5092049;28;20475;-70
2020/12/01 01:08:07;;;;;;;32.10;14.67;;;1.70;90.40;;;;;;5096141;28;20102;-71
2020/12/01 01:10:34;;;;;;;30.60;13.83;;;1.70;90.40;;;;;;5094162;28;20028;-70
2020/12/01 01:13:00;;;;;;;31.37;14.30;;;1.70;90.40;;;;;;5095921;28;20048;-70
2020/12/01 01:15:31;;;;;;;35.63;15.10;;;1.70;90.50;;;;;;5095649;28;20020;-71
2020/12/01 01:17:58;;;;;;;34.97;15.03;;;1.60;90.60;;;;;;5094493;28;20085;-70
2020/12/01 01:20:25;;;;;;;34.77;14.80;;;1.70;90.70;;;;;;5094579;28;20056;-70
2020/12/01 01:22:50;;;;;;;32.93;14.20;;;1.70;90.70;;;;;;5094201;28;20024;-71
2020/12/01 01:25:17;;;;;;;32.60;14.23;;;1.70;90.80;;;;;;5094493;28;20073;-70
2020/12/01 01:27:45;;;;;;;34.63;14.50;;;1.70;90.80;;;;;;5095359;28;20032;-70
2020/12/01 01:30:14;;;;;;;36.17;15.87;;;1.60;90.90;;;;;;5094517;28;20032;-70
2020/12/01 01:32:39;;;;;;;35.07;14.63;;;1.60;90.90;;;;;;5093754;28;20024;-70
2020/12/01 01:35:05;;;;;;;33.53;14.70;;;1.60;90.90;;;;;;5094249;28;20382;-70
2020/12/01 01:37:31;;;;;;;32.63;14.50;;;1.60;90.90;;;;;;5094891;28;20024;-71
2020/12/01 01:39:56;;;;;;;33.57;14.80;;;1.60;91.00;;;;;;5094067;28;20032;-70
2020/12/01 01:42:22;;;;;;;38.33;15.03;;;1.60;91.10;;;;;;5095460;28;20024;-70
2020/12/01 01:44:48;;;;;;;33.00;14.17;;;1.60;91.10;;;;;;5093483;28;20035;-70
2020/12/01 01:47:40;;;;;;;35.10;14.17;;;1.60;91.10;;;;;;5095351;28;20368;-70
2020/12/01 01:50:17;;;;;;;31.87;14.10;;;1.70;91.10;;;;;;5090556;28;20048;-70
2020/12/01 01:52:48;;;;;;;35.43;14.50;;;1.70;91.10;;;;;;5093363;28;20035;-70
2020/12/01 01:55:21;;;;;;;32.37;14.97;;;1.70;91.00;;;;;;5094007;28;20032;-70
2020/12/01 01:57:51;;;;;;;33.80;14.47;;;1.70;91.00;;;;;;5093324;28;20394;-70
2020/12/01 02:00:37;;;;;;;30.67;13.27;;;1.70;90.90;;;;;;5093849;28;20032;-70
2020/12/01 02:03:03;;;;;;;31.40;13.83;;;1.70;90.90;;;;;;5093987;28;20035;-70
2020/12/01 02:05:28;;;;;;;31.30;14.00;;;1.80;90.80;;;;;;5093211;28;20118;-71
2020/12/01 02:07:55;;;;;;;33.17;13.83;;;1.80;90.80;;;;;;5094944;28;20028;-70
2020/12/01 02:10:22;;;;;;;31.20;13.63;;;1.80;90.70;;;;;;5094685;28;20072;-70
2020/12/01 02:12:50;;;;;;;31.57;13.73;;;1.80;90.70;;;;;;5094048;28;20035;-70
2020/12/01 02:15:15;;;;;;;32.07;12.63;;;1.80;90.70;;;;;;5093431;28;20077;-70
2020/12/01 02:17:43;;;;;;;30.97;12.80;;;1.80;90.70;;;;;;5093493;28;20070;-70
2020/12/01 02:20:20;;;;;;;34.43;14.50;;;1.80;90.70;;;;;;5094078;28;20062;-70
2020/12/01 02:22:48;;;;;;;31.13;13.47;;;1.80;90.70;;;;;;5092827;28;20031;-70
2020/12/01 02:25:16;;;;;;;30.60;13.43;;;1.90;91.00;;;;;;5093388;28;20393;-70
2020/12/01 02:27:42;;;;;;;26.47;12.57;;;1.90;90.70;;;;;;5094268;28;20035;-70
2020/12/01 02:30:11;;;;;;;31.87;13.87;;;2.00;90.70;;;;;;5093186;28;20031;-70
2020/12/01 02:32:38;;;;;;;27.33;13.20;;;2.00;90.80;;;;;;5092520;28;20125;-70
2020/12/01 02:35:09;;;;;;;28.33;12.80;;;2.00;90.80;;;;;;5094376;28;20121;-70
2020/12/01 02:37:36;;;;;;;30.33;13.10;;;2.00;90.80;;;;;;5093887;28;20106;-70
2020/12/01 02:40:03;;;;;;;28.77;12.47;;;2.00;90.80;;;;;;5092915;28;20150;-70
2020/12/01 02:42:29;;;;;;;29.27;13.47;;;2.10;90.80;;;;;;5093087;28;20028;-70
2020/12/01 02:44:56;;;;;;;30.23;13.27;;;2.00;90.70;;;;;;5094256;28;20095;-70
2020/12/01 02:47:23;;;;;;;32.43;13.97;;;2.00;90.70;;;;;;5092896;28;20085;-70
2020/12/01 02:49:49;;;;;;;30.03;13.03;;;2.00;90.70;;;;;;5092263;28;20036;-70
2020/12/01 02:52:15;;;;;;;30.93;12.07;;;2.00;90.80;;;;;;5092931;28;20028;-70
2020/12/01 02:54:40;;;;;;;28.73;12.40;;;2.00;90.70;;;;;;5093481;28;20028;-70
2020/12/01 02:57:06;;;;;;;30.60;13.10;;;2.00;90.80;;;;;;5093748;28;20469;-70
2020/12/01 02:59:31;;;;;;;31.57;13.23;;;2.00;90.80;;;;;;5092134;28;20464;-71
2020/12/01 03:01:57;;;;;;;30.00;12.73;;;2.00;90.80;;;;;;5093625;28;20059;-70
2020/12/01 03:04:23;;;;;;;29.50;12.90;;;1.90;90.80;;;;;;5092593;28;20358;-70
2020/12/01 03:06:49;;;;;;;31.60;13.33;;;1.90;90.80;;;;;;5091395;28;20016;-70
2020/12/01 03:09:17;;;;;;;32.47;13.17;;;2.00;90.80;;;;;;5093822;28;20047;-70
2020/12/01 03:11:43;;;;;;;30.67;13.30;;;1.90;90.80;;;;;;5093144;28;20020;-70
2020/12/01 03:14:09;;;;;;;29.83;13.10;;;1.90;90.80;;;;;;5093697;28;20031;-70
2020/12/01 03:16:34;;;;;;;32.57;13.40;;;1.90;90.90;;;;;;5091840;28;20024;-70
2020/12/01 03:19:00;;;;;;;27.23;12.07;;;1.90;90.90;;;;;;5091799;28;20040;-71
2020/12/01 03:21:26;;;;;;;27.83;11.70;;;1.90;91.00;;;;;;5092384;28;20039;-70
2020/12/01 03:23:51;;;;;;;29.27;11.83;;;1.90;91.00;;;;;;5091686;28;20630;-70
2020/12/01 03:26:18;;;;;;;27.47;11.83;;;1.80;91.10;;;;;;5091933;28;20064;-70
2020/12/01 03:28:46;;;;;;;25.03;11.97;;;1.80;91.10;;;;;;5092215;28;20464;-70
2020/12/01 03:31:14;;;;;;;31.40;12.43;;;1.80;91.10;;;;;;5093153;28;20050;-70
2020/12/01 03:33:39;;;;;;;30.63;13.17;;;1.90;91.10;;;;;;5091503;28;20524;-70
2020/12/01 03:36:05;;;;;;;27.53;12.83;;;1.90;91.10;;;;;;5093311;28;20099;-70
2020/12/01 03:38:31;;;;;;;29.20;12.37;;;1.80;91.20;;;;;;5093191;28;20028;-70
2020/12/01 03:40:56;;;;;;;34.77;13.10;;;1.80;91.30;;;;;;5092944;28;20107;-70
2020/12/01 03:43:22;;;;;;;28.27;12.53;;;1.80;91.30;;;;;;5091806;28;20019;-70
2020/12/01 03:45:47;;;;;;;29.43;12.03;;;1.90;91.30;;;;;;5092329;28;20070;-70
2020/12/01 03:48:14;;;;;;;30.60;12.87;;;1.80;91.30;;;;;;5092925;28;20028;-70
2020/12/01 03:50:40;;;;;;;28.43;12.33;;;1.90;91.30;;;;;;5091151;28;20075;-70
2020/12/01 03:53:06;;;;;;;26.37;12.40;;;1.90;91.30;;;;;;5093023;28;20059;-70
2020/12/01 03:55:31;;;;;;;32.00;12.70;;;1.80;91.30;;;;;;5092979;28;20024;-70
2020/12/01 03:57:58;;;;;;;30.90;12.67;;;1.90;91.30;;;;;;5092342;28;20526;-70
2020/12/01 04:00:26;;;;;;;28.23;12.43;;;1.80;91.30;;;;;;5092871;28;20036;-70
2020/12/01 04:02:53;;;;;;;28.07;11.97;;;1.80;91.30;;;;;;5091052;28;20031;-70
2020/12/01 04:05:21;;;;;;;32.20;13.13;;;1.90;91.30;;;;;;5092852;28;20025;-70
2020/12/01 04:07:47;;;;;;;32.30;13.47;;;1.80;91.20;;;;;;5090979;28;20072;-70
2020/12/01 04:10:15;;;;;;;28.73;13.07;;;1.80;91.30;;;;;;5092801;28;20054;-70
2020/12/01 04:12:41;;;;;;;31.30;12.87;;;1.80;91.30;;;;;;5090916;28;20024;-70
2020/12/01 04:15:07;;;;;;;34.63;14.03;;;1.80;91.30;;;;;;5091121;28;20036;-70
2020/12/01 04:17:32;;;;;;;31.60;13.73;;;1.80;91.30;;;;;;5091462;28;20024;-70
2020/12/01 04:19:58;;;;;;;29.23;12.43;;;1.70;91.30;;;;;;5092046;28;20056;-70
2020/12/01 04:22:24;;;;;;;27.67;12.87;;;1.70;91.40;;;;;;5091332;28;20036;-70
2020/12/01 04:24:50;;;;;;;31.37;13.87;;;1.70;91.40;;;;;;5091896;28;20048;-70
2020/12/01 04:27:16;;;;;;;32.97;14.23;;;1.70;91.50;;;;;;5092948;28;20465;-70
2020/12/01 04:29:42;;;;;;;31.33;14.03;;;1.70;91.50;;;;;;5090754;28;20041;-70
2020/12/01 04:32:08;;;;;;;33.37;13.17;;;1.60;91.60;;;;;;5092638;28;20149;-70
2020/12/01 04:34:34;;;;;;;35.20;14.17;;;1.60;91.70;;;;;;5091264;28;20438;-70
2020/12/01 04:37:02;;;;;;;32.40;13.03;;;1.60;91.70;;;;;;5090697;28;20028;-70
2020/12/01 04:39:28;;;;;;;30.20;13.70;;;1.60;91.70;;;;;;5092642;28;20032;-70
2020/12/01 04:41:54;;;;;;;32.63;12.90;;;1.70;91.80;;;;;;5095987;28;20086;-70
2020/12/01 04:44:52;;;;;;;33.77;13.30;;;1.70;91.80;;;;;;5095241;28;20025;-70
2020/12/01 04:47:29;;;;;;;34.53;14.13;;;1.70;91.80;;;;;;5067547;28;20496;-70
2020/12/01 04:50:05;;;;;;;34.03;14.57;;;1.70;91.80;;;;;;5094639;28;20521;-70
2020/12/01 04:52:58;;;;;;;33.60;14.43;;;1.70;92.10;;;;;;5096494;28;20466;-70
2020/12/01 04:55:49;;;;;;;32.77;14.00;;;1.70;91.90;;;;;;5096369;28;20035;-70
2020/12/01 04:58:44;;;;;;;33.30;14.00;;;1.80;91.90;;;;;;5094965;28;20111;-70
2020/12/01 05:01:15;;;;;;;31.13;13.57;;;1.70;91.80;;;;;;5096091;28;20487;-70
2020/12/01 05:03:54;;;;;;;31.93;13.60;;;1.70;91.80;;;;;;5094477;28;20070;-70
2020/12/01 05:06:57;;;;;;;38.50;15.17;;;1.70;91.90;;;;;;5094829;28;20028;-70
2020/12/01 05:09:43;;;;;;;33.73;13.53;;;1.70;91.90;;;;;;5096255;28;20055;-69
2020/12/01 05:12:20;;;;;;;33.30;13.83;;;1.70;91.90;;;;;;5094715;28;20479;-69
2020/12/01 05:15:29;;;;;;;34.47;14.60;;;1.80;92.00;;;;;;5095141;28;20426;-70
2020/12/01 05:18:16;;;;;;;34.47;14.30;;;1.80;91.90;;;;;;5094925;28;20056;-70
2020/12/01 05:20:54;;;;;;;34.53;13.80;;;1.80;91.80;;;;;;5093910;28;20489;-71
2020/12/01 05:23:35;;;;;;;30.77;13.47;;;1.80;91.80;;;;;;5095849;28;20081;-70
2020/12/01 05:26:05;;;;;;;30.40;12.30;;;1.80;91.80;;;;;;5093975;28;20032;-70
2020/12/01 05:28:49;;;;;;;34.47;13.37;;;1.80;91.80;;;;;;5094604;28;20027;-70
2020/12/01 05:31:18;;;;;;;36.00;14.00;;;1.80;92.20;;;;;;5094590;28;20020;-70
2020/12/01 05:33:44;;;;;;;34.27;13.67;;;1.70;91.90;;;;;;5094984;28;20059;-70
2020/12/01 05:36:21;;;;;;;29.50;12.93;;;1.70;91.90;;;;;;5095637;28;20020;-70
2020/12/01 05:39:13;;;;;;;30.20;12.43;;;1.70;91.90;;;;;;5093678;28;20476;-70
2020/12/01 05:41:40;;;;;;;30.17;12.95;;;1.70;92.00;;;;;;5095639;28;20020;-70
2020/12/01 05:44:26;;;;;;;31.07;12.47;;;1.80;91.90;;;;;;5106540;28;20036;-70
2020/12/01 05:47:08;;;;;;;29.43;12.37;;;1.80;92.00;;;;;;5113639;28;20080;-70
2020/12/01 05:49:35;;;;;;;;;;;1.80;91.90;;;;;;5114710;28;20038;-70
2020/12/01 05:52:04;;;;;;;29.33;12.27;;;1.80;91.90;;;;;;5113174;28;19952;-70
2020/12/01 05:54:42;;;;;;;30.10;11.37;;;1.70;91.90;;;;;;5115638;28;20098;-70
2020/12/01 05:57:24;;;;;;;27.80;11.60;;;1.70;91.90;;;;;;5114457;28;20460;-70
2020/12/01 05:59:54;;;;;;;28.58;11.88;;;1.70;91.90;;;;;;5113723;28;20058;-70
2020/12/01 06:02:30;;;;;;;28.23;12.60;;;1.70;91.90;;;;;;5114190;28;20031;-70
2020/12/01 06:04:57;;;;;;;29.53;12.10;;;1.70;91.90;;;;;;5113686;28;20063;-70
2020/12/01 06:07:26;;;;;;;27.37;11.97;;;1.70;92.00;;;;;;5114148;28;20058;-70
2020/12/01 06:10:21;;;;;;;28.27;11.73;;;1.70;92.10;;;;;;5113481;28;20035;-70
2020/12/01 06:13:31;;;;;;;29.63;12.23;;;1.70;92.10;;;;;;5114454;28;20023;-70
2020/12/01 06:16:07;;;;;;;29.00;12.00;;;1.70;92.10;;;;;;5113314;28;20388;-70
2020/12/01 06:18:51;;;;;;;27.40;11.60;;;1.80;92.00;;;;;;5114776;28;20100;-70
2020/12/01 06:21:40;;;;;;;27.83;11.87;;;1.80;92.10;;;;;;5114058;28;20052;-69
2020/12/01 06:24:31;;;;;;;27.93;11.30;;;1.70;92.10;;;;;;5112360;28;20036;-70
2020/12/01 06:27:31;;;;;;;22.15;9.35;;;1.80;92.10;;;;;;5075618;28;20043;-70
2020/12/01 06:30:23;;;;;;;26.13;11.53;;;1.80;92.10;;;;;;5113014;28;20038;-70
2020/12/01 06:33:25;;;;;;;23.95;11.10;;;1.80;92.00;;;;;;5107920;28;20495;-70
2020/12/01 06:36:31;;;;;;;24.88;11.38;;;1.80;91.90;;;;;;5113113;28;20031;-70
2020/12/01 06:39:23;;;;;;;26.90;11.47;;;1.70;91.90;;;;;;5112796;28;20392;-70
2020/12/01 06:41:57;;;;;;;25.50;10.95;;;1.70;92.00;;;;;;5098995;28;20119;-70
2020/12/01 06:44:26;;;;;;;25.47;10.90;;;1.70;92.10;;;;;;5114985;28;20099;-70
2020/12/01 06:46:57;;;;;;;22.47;10.90;;;1.70;92.10;;;;;;5114078;28;20020;-70
2020/12/01 06:49:31;;;;;;;26.53;10.70;;;1.80;92.10;;;;;;5113385;28;20028;-70
2020/12/01 06:52:01;;;;;;;23.17;10.93;;;1.80;92.10;;;;;;5112611;28;20036;-70
2020/12/01 06:54:27;;;;;;;22.17;10.47;;;1.80;92.00;;;;;;5114411;28;20024;-71
2020/12/01 06:57:01;;;;;;;29.10;11.37;;;1.80;92.10;;;;;;5112281;28;20027;-71
2020/12/01 06:59:27;;;;;;;25.17;11.60;;;1.80;92.00;;;;;;5112696;28;20024;-70
2020/12/01 07:02:03;;;;;;;24.77;10.40;;;1.80;92.10;;;;;;5112420;28;20020;-70
2020/12/01 07:04:29;;;;;;;28.50;11.20;;;1.80;92.00;;;;;;5113387;28;20027;-70
2020/12/01 07:06:56;;;;;;;32.87;10.60;;;1.80;92.10;;;;;;5113570;28;20028;-71
2020/12/01 07:09:29;;;;;;;22.93;10.50;;;1.80;92.10;;;;;;5114156;28;20468;-70
2020/12/01 07:12:00;;;;;;;22.50;10.63;;;1.80;92.10;;;;;;5112258;28;20031;-70
2020/12/01 07:14:41;;;;;;;24.65;10.88;;;1.80;92.20;;;;;;5114426;28;20112;-71
2020/12/01 07:17:19;;;;;;;24.27;10.63;;;1.80;92.20;;;;;;5113492;28;20034;-70
2020/12/01 07:19:55;;;;;;;27.87;10.67;;;1.80;92.20;;;;;;5072904;28;20048;-70
2020/12/01 07:22:27;;;;;;;23.63;9.63;;;1.90;92.30;;;;;;5073006;28;20025;-70
2020/12/01 07:25:22;;;;;;;26.80;11.00;;;1.90;92.30;;;;;;5079593;28;20020;-70
2020/12/01 07:28:06;;;;;;;25.00;10.37;;;1.90;92.20;;;;;;5071442;28;20024;-71
2020/12/01 07:30:54;;;;;;;32.93;11.83;;;1.90;92.20;;;;;;5096480;28;20036;-70
2020/12/01 07:33:25;;;;;;;23.73;10.43;;;1.90;92.10;;;;;;5097007;28;20043;-69
2020/12/01 07:36:12;;;;;;;25.57;11.27;;;2.00;92.20;;;;;;5090866;28;20061;-71
2020/12/01 07:38:44;;;;;;;28.53;11.60;;;2.00;92.20;;;;;;5090990;28;20368;-70
2020/12/01 07:41:25;;;;;;;24.70;11.10;;;2.00;92.20;;;;;;5090590;28;20590;-70
2020/12/01 07:44:03;;;;;;;28.60;11.17;;;2.00;92.20;;;;;;5092196;28;20024;-71
2020/12/01 07:46:29;;;;;;;27.97;10.77;;;2.00;92.20;;;;;;5091627;28;20028;-70
2020/12/01 07:49:00;;;;;;;26.27;11.33;;;2.10;92.20;;;;;;5090331;28;20396;-71
2020/12/01 07:51:28;;;;;;;28.10;10.50;;;2.10;92.10;;;;;;5092327;28;20028;-69
2020/12/01 07:53:54;;;;;;;27.27;11.43;;;2.10;92.10;;;;;;5091675;28;20473;-69
2020/12/01 07:56:22;;;;;;;26.40;11.70;;;2.10;92.00;;;;;;5092248;28;20020;-69
2020/12/01 07:59:12;;;;;;;23.97;10.13;;;2.10;92.00;;;;;;5091169;28;20053;-70
2020/12/01 08:01:39;;;;;;;24.27;10.17;;;2.10;92.10;;;;;;5091075;28;20032;-69
2020/12/01 08:04:15;;;;;;;27.13;11.13;;;2.10;92.10;;;;;;5091593;28;20476;-69
2020/12/01 08:06:41;;;;;;;27.90;11.43;;;2.20;92.10;;;;;;5090786;28;20028;-69
2020/12/01 08:09:25;;;;;;;25.30;10.53;;;2.20;92.00;;;;;;5091056;28;20031;-69
2020/12/01 08:11:54;;;;;;;24.27;10.43;;;2.20;92.00;;;;;;5071184;28;20029;-74
2020/12/01 08:14:20;;;;;;;22.20;10.10;;;2.20;92.00;;;;;;5089080;28;20048;-69
2020/12/01 08:17:20;;;;;;;21.10;8.60;;;2.10;92.00;;;;;;5090150;28;20024;-70
2020/12/01 08:19:47;;;;;;;22.70;10.33;;;2.20;92.00;;;;;;5088208;28;20139;-70
2020/12/01 08:22:18;;;;;;;20.80;9.33;;;2.20;92.00;;;;;;5089564;28;20209;-70
2020/12/01 08:24:45;;;;;;;24.25;10.32;;;2.20;92.00;;;;;;5090520;28;20093;-69
2020/12/01 08:27:30;;;;;;;21.97;9.70;;;2.20;92.00;;;;;;5089723;28;20093;-73
2020/12/01 08:29:58;;;;;;;23.23;10.03;;;2.20;92.10;;;;;;5088529;28;20035;-73
2020/12/01 08:32:34;;;;;;;22.27;9.53;;;2.20;92.10;;;;;;5090204;28;20082;-72
2020/12/01 08:35:20;;;;;;;23.60;10.37;;;2.20;92.00;;;;;;5093149;28;20110;-72
2020/12/01 08:37:54;;;;;;;20.23;9.77;;;2.20;92.10;;;;;;5101409;28;20035;-72
2020/12/01 08:40:57;;;;;;;21.67;9.70;;;2.30;92.10;;;;;;5112234;28;20032;-72
2020/12/01 08:43:51;;;;;;;22.13;9.03;;;2.30;92.10;;;;;;5103430;28;20034;-69
2020/12/01 08:46:19;;;;;;;20.20;9.20;;;2.20;92.10;;;;;;5102269;28;20511;-69
2020/12/01 08:48:51;;;;;;;20.63;9.73;;;2.20;92.10;;;;;;5104713;28;20093;-70
2020/12/01 08:51:21;;;;;;;22.10;9.23;;;2.30;92.10;;;;;;5089873;28;20055;-69
2020/12/01 08:54:01;;;;;;;23.07;9.20;;;2.20;92.20;;;;;;5091379;28;20027;-69
2020/12/01 08:56:46;;;;;;;19.70;9.50;;;2.30;92.20;;;;;;5089910;28;20024;-70
2020/12/01 08:59:17;;;;;;;22.77;9.80;;;2.30;92.20;;;;;;5090647;28;20043;-69
2020/12/01 09:01:43;;;;;;;20.07;9.30;;;2.40;92.20;;;;;;5103164;28;20476;-69
2020/12/01 09:04:28;;;;;;;21.63;9.00;;;2.40;92.10;;;;;;5104019;28;20066;-70
2020/12/01 09:07:28;;;;;;;20.87;9.20;;;2.40;92.10;;;;;;5110049;28;20081;-73
2020/12/01 09:10:32;;;;;;;18.47;8.67;;;2.50;92.00;;;;;;5110818;28;20105;-71
2020/12/01 09:13:29;;;;;;;20.60;8.87;;;2.50;92.00;;;;;;5107270;28;20050;-69
2020/12/01 09:21:52;;;;;;;17.97;8.50;;;2.60;91.90;;;;;;5068801;28;20494;-70
2020/12/01 09:24:22;;;;;;;20.53;8.97;;;2.60;91.90;;;;;;5068519;28;20020;-72
2020/12/01 09:27:23;;;;;;;18.60;9.10;;;2.70;92.00;;;;;;5050117;28;20033;-71
2020/12/01 09:29:51;;;;;;;19.07;8.47;;;2.70;91.80;;;;;;4972313;28;20531;-70
2020/12/01 09:32:21;;;;;;;18.17;8.27;;;2.70;91.80;;;;;;5019030;28;20036;-70
2020/12/01 09:34:48;;;;;;;16.67;7.43;;;2.70;91.80;;;;;;5051787;28;20112;-70
2020/12/01 09:37:16;;;;;;;17.27;8.33;;;2.70;91.90;;;;;;5050610;28;20075;-70
2020/12/01 09:39:42;;;;;;;17.17;7.50;;;2.80;91.80;;;;;;5051639;28;20089;-69
2020/12/01 09:42:26;;;;;;;16.83;7.47;;;2.80;91.80;;;;;;5050756;28;20437;-71
2020/12/01 09:50:09;;;;;;;18.07;7.23;;;2.80;91.70;;;;;;5043748;28;20476;-70
2020/12/01 09:55:42;;;;;;;14.63;7.00;;;2.90;91.60;;;;;;5082474;28;20036;-71
2020/12/01 10:09:17;;;;;;;17.20;8.07;;;3.00;91.50;;;;;;5093893;28;20126;-71
2020/12/01 10:35:22;;;;;;;16.63;7.40;;;3.10;91.30;;;;;;5114346;28;20171;-72
2020/12/01 10:37:54;;;;;;;14.23;7.43;;;3.20;91.30;;;;;;5114427;28;20051;-71
2020/12/01 10:40:22;;;;;;;16.77;7.68;;;3.20;91.40;;;;;;5113863;27;20028;-71
2020/12/01 10:42:48;;;;;;;15.27;7.57;;;3.20;91.30;;;;;;5111638;28;20036;-72
2020/12/01 10:45:14;;;;;;;16.43;7.53;;;3.20;91.10;;;;;;5093695;28;20098;-72
2020/12/01 10:47:40;;;;;;;14.87;7.77;;;3.20;91.00;;;;;;5093807;28;20077;-71
2020/12/01 10:50:06;;;;;;;15.60;6.90;;;3.20;90.90;;;;;;5091418;28;20036;-71
2020/12/01 10:52:32;;;;;;;13.13;6.57;;;3.10;91.00;;;;;;5095380;28;20099;-71
2020/12/01 10:54:58;;;;;;;16.63;7.77;;;3.20;91.00;;;;;;5112101;28;20035;-72
2020/12/01 10:57:24;;;;;;;15.70;7.73;;;3.20;91.00;;;;;;5112755;28;20070;-71
2020/12/01 10:59:49;;;;;;;15.30;7.73;;;3.20;91.10;;;;;;5112754;28;20024;-72
2020/12/01 11:02:15;;;;;;;15.57;7.43;;;3.20;91.10;;;;;;5112351;28;20058;-71
2020/12/01 11:04:41;;;;;;;16.07;6.87;;;3.20;91.10;;;;;;5112922;28;20024;-70
2020/12/01 11:07:06;;;;;;;15.13;6.83;;;3.20;91.00;;;;;;5111826;28;20369;-71
2020/12/01 11:09:32;;;;;;;16.57;7.60;;;3.20;91.10;;;;;;5113713;28;20031;-70
2020/12/01 11:11:59;;;;;;;15.13;6.50;;;3.20;91.00;;;;;;5111889;28;20027;-70
2020/12/01 11:14:25;;;;;;;16.07;7.43;;;3.20;90.80;;;;;;5097048;28;20036;-71
2020/12/01 11:16:51;;;;;;;13.97;7.03;;;3.20;90.90;;;;;;5093273;28;20025;-70
2020/12/01 11:19:16;;;;;;;15.83;7.10;;;3.20;90.80;;;;;;5092654;28;20254;-70
2020/12/01 11:21:42;;;;;;;14.00;7.50;;;3.30;90.80;;;;;;5093307;28;20032;-70
2020/12/01 11:24:08;;;;;;;14.47;7.43;;;3.30;90.80;;;;;;5092845;28;20021;-71
2020/12/01 11:26:33;;;;;;;12.90;7.20;;;3.30;90.90;;;;;;5091669;28;20055;-71
2020/12/01 11:28:59;;;;;;;15.53;7.90;;;3.30;90.90;;;;;;5091353;28;20032;-71
2020/12/01 11:31:25;;;;;;;18.40;8.30;;;3.30;90.90;;;;;;5092969;28;20027;-71
2020/12/01 11:34:02;;;;;;;16.37;8.03;;;3.30;91.00;;;;;;5091946;28;20024;-71
2020/12/01 11:36:28;;;;;;;13.60;6.80;;;3.30;91.10;;;;;;5091613;28;20035;-72
2020/12/01 11:38:54;;;;;;;15.47;7.23;;;3.30;91.10;;;;;;5091810;28;20035;-71
2020/12/01 11:41:20;;;;;;;12.97;6.83;;;3.30;91.30;;;;;;5090792;28;20024;-73
2020/12/01 11:43:46;;;;;;;13.67;6.83;;;3.30;91.30;;;;;;5097067;28;20028;-72
2020/12/01 11:46:12;;;;;;;13.37;6.97;;;3.20;91.20;;;;;;5112516;28;20028;-72
2020/12/01 11:48:38;;;;;;;14.60;7.20;;;3.20;91.30;;;;;;5109648;28;20039;-72
2020/12/01 11:51:03;;;;;;;12.13;6.23;;;3.20;91.40;;;;;;5111447;28;20031;-72
2020/12/01 11:53:29;;;;;;;12.30;6.43;;;3.20;91.30;;;;;;5107318;28;20058;-72
2020/12/01 11:55:55;;;;;;;11.77;6.17;;;3.20;91.50;;;;;;5111182;28;20035;-72
2020/12/01 11:58:21;;;;;;;16.50;6.80;;;3.20;91.30;;;;;;5108397;28;20464;-72
2020/12/01 12:00:46;;;;;;;14.33;7.13;;;3.20;91.40;;;;;;5112934;28;20028;-71
2020/12/01 12:03:12;;;;;;;12.03;6.27;;;3.20;91.40;;;;;;5090898;28;20024;-69
2020/12/01 12:05:37;;;;;;;12.33;6.40;;;3.20;91.40;;;;;;5090228;28;20020;-70
2020/12/01 12:08:03;;;;;;;13.70;6.67;;;3.20;91.40;;;;;;5095906;28;20028;-70
2020/12/01 12:10:28;;;;;;;11.00;5.97;;;3.20;91.40;;;;;;5100693;28;20028;-70
2020/12/01 12:12:54;;;;;;;10.03;5.90;;;3.20;91.40;;;;;;5102345;28;20440;-70
2020/12/01 12:15:20;;;;;;;11.97;6.30;;;3.20;91.40;;;;;;5099026;28;20020;-70
2020/12/01 12:17:45;;;;;;;14.30;6.93;;;3.20;91.40;;;;;;5104957;28;20028;-70
2020/12/01 12:20:11;;;;;;;11.40;5.40;;;3.20;91.40;;;;;;5110380;28;20087;-71
2020/12/01 12:22:37;;;;;;;14.50;6.43;;;3.20;91.40;;;;;;5106891;28;20028;-69
2020/12/01 12:25:03;;;;;;;13.63;6.47;;;3.20;91.60;;;;;;5087921;28;20108;-70
2020/12/01 12:27:29;;;;;;;11.90;6.13;;;3.20;91.60;;;;;;5097623;28;20027;-70
2020/12/01 12:29:55;;;;;;;11.23;6.17;;;3.20;91.50;;;;;;5099138;28;20115;-70
2020/12/01 12:32:21;;;;;;;12.30;6.07;;;3.30;91.80;;;;;;5102519;28;20472;-70
2020/12/01 12:34:46;;;;;;;10.30;5.67;;;3.30;91.50;;;;;;5090730;28;20085;-70
2020/12/01 12:37:12;;;;;;;13.27;6.10;;;3.30;91.40;;;;;;5090138;28;20035;-69
2020/12/01 12:39:38;;;;;;;11.03;5.80;;;3.30;91.30;;;;;;5091816;28;20082;-69
2020/12/01 12:42:04;;;;;;;11.33;5.70;;;3.20;91.50;;;;;;5089976;28;20047;-69
2020/12/01 12:44:29;;;;;;;13.70;5.83;;;3.20;91.80;;;;;;5091640;28;20020;-70
2020/12/01 12:46:55;;;;;;;11.10;6.03;;;3.20;91.50;;;;;;5090369;28;20027;-70
2020/12/01 12:49:20;;;;;;;12.40;5.43;;;3.20;91.60;;;;;;5090331;28;20040;-70
2020/12/01 12:51:46;;;;;;;9.33;4.93;;;3.30;91.70;;;;;;5091509;28;20031;-71
2020/12/01 12:54:12;;;;;;;10.97;5.87;;;3.30;91.70;;;;;;5091113;28;20051;-71
2020/12/01 12:56:37;;;;;;;9.40;5.07;;;3.30;91.70;;;;;;5090279;28;20031;-70
2020/12/01 12:59:03;;;;;;;9.80;5.23;;;3.40;91.70;;;;;;5091455;28;20121;-70
2020/12/01 13:01:29;;;;;;;11.70;5.67;;;3.30;91.70;;;;;;5091313;28;20036;-70
2020/12/01 13:03:54;;;;;;;8.73;5.00;;;3.40;91.70;;;;;;5095723;28;20028;-69
2020/12/01 13:06:20;;;;;;;9.87;4.83;;;3.40;91.60;;;;;;5094498;28;20024;-69
2020/12/01 13:08:47;;;;;;;8.90;4.47;;;3.40;91.60;;;;;;5095521;28;20103;-69
2020/12/01 13:11:12;;;;;;;10.90;5.57;;;3.30;91.60;;;;;;5094948;28;20020;-69
2020/12/01 13:13:38;;;;;;;9.37;4.77;;;3.30;91.60;;;;;;5094075;28;20058;-69
2020/12/01 13:16:04;;;;;;;9.90;5.47;;;3.40;91.60;;;;;;5094446;28;20544;-69
2020/12/01 13:18:30;;;;;;;9.83;5.17;;;3.30;91.50;;;;;;5093691;28;20097;-70
2020/12/01 13:20:56;;;;;;;8.03;4.63;;;3.30;91.50;;;;;;5093920;28;20071;-69
2020/12/01 13:23:22;;;;;;;8.43;5.13;;;3.30;91.60;;;;;;5093444;28;20461;-70
2020/12/01 13:25:48;;;;;;;12.03;5.07;;;3.30;91.60;;;;;;5093129;28;20126;-69
2020/12/01 13:28:13;;;;;;;11.90;5.37;;;3.30;91.70;;;;;;5094467;28;20031;-70
2020/12/01 13:30:39;;;;;;;10.33;5.00;;;3.20;91.80;;;;;;5093833;28;20457;-69
2020/12/01 13:33:05;;;;;;;9.90;5.33;;;3.30;91.80;;;;;;5093257;28;20032;-69
2020/12/01 13:35:31;;;;;;;10.90;5.30;;;3.30;91.70;;;;;;5094745;28;20020;-70
2020/12/01 13:37:57;;;;;;;9.60;5.53;;;3.30;91.70;;;;;;5093792;28;20073;-69
2020/12/01 13:40:24;;;;;;;8.33;5.00;;;3.30;91.70;;;;;;5092911;28;20036;-69
2020/12/01 13:42:50;;;;;;;8.97;4.83;;;3.30;91.60;;;;;;5076839;28;20020;-70
2020/12/01 13:45:17;;;;;;;10.67;5.33;;;3.40;91.60;;;;;;5093044;28;20032;-71
2020/12/01 13:47:44;;;;;;;10.77;5.77;;;3.40;91.50;;;;;;5093126;28;20020;-70
2020/12/01 13:50:11;;;;;;;9.77;4.70;;;3.40;91.40;;;;;;5092764;28;20032;-70